createdAt,value
2022-12-31T00:00:38.252Z,0.00
2022-12-31T00:01:38.203Z,0.00
2022-12-31T00:02:38.280Z,0.00
2022-12-31T00:03:38.227Z,0.00
2022-12-31T00:04:38.167Z,0.00
2022-12-31T00:05:38.156Z,0.00
2022-12-31T00:06:38.141Z,0.00
2022-12-31T00:08:02.861Z,0.00
2022-12-31T00:09:02.850Z,0.00
2022-12-31T00:10:02.871Z,0.00
2022-12-31T00:11:02.829Z,0.00
2022-12-31T00:12:02.816Z,0.00
2022-12-31T00:13:02.806Z,0.00
2022-12-31T00:14:02.791Z,0.00
2022-12-31T00:15:02.788Z,0.00
2022-12-31T00:16:08.297Z,0.00
2022-12-31T00:17:02.793Z,0.00
2022-12-31T00:18:02.755Z,0.00
2022-12-31T00:19:02.739Z,0.00
2022-12-31T00:20:02.732Z,0.00
2022-12-31T00:21:02.719Z,0.00
2022-12-31T00:22:02.712Z,0.00
2022-12-31T00:23:02.697Z,0.00
2022-12-31T00:24:02.689Z,0.00
2022-12-31T00:25:02.675Z,0.00
2022-12-31T00:26:02.865Z,0.00
2022-12-31T00:27:02.651Z,0.00
2022-12-31T00:28:02.648Z,0.00
2022-12-31T00:29:02.647Z,0.00
2022-12-31T00:30:04.964Z,0.00
2022-12-31T00:31:02.666Z,0.00
2022-12-31T00:32:02.609Z,0.00
2022-12-31T00:33:02.601Z,0.00
2022-12-31T00:34:02.582Z,0.00
2022-12-31T00:35:02.579Z,0.00
2022-12-31T00:36:02.563Z,0.00
2022-12-31T00:37:02.543Z,0.00
2022-12-31T00:38:02.537Z,0.00
2022-12-31T00:39:02.522Z,0.00
2022-12-31T00:40:02.527Z,0.00
2022-12-31T00:41:02.516Z,0.00
2022-12-31T00:42:02.521Z,0.00
2022-12-31T00:43:02.477Z,0.00
2022-12-31T00:44:02.474Z,0.00
2022-12-31T00:45:02.467Z,0.00
2022-12-31T00:46:02.462Z,0.00
2022-12-31T00:47:02.434Z,0.00
2022-12-31T00:48:02.436Z,0.00
2022-12-31T00:49:02.407Z,0.00
2022-12-31T00:50:02.405Z,0.00
2022-12-31T00:51:02.388Z,0.00
2022-12-31T00:52:02.376Z,0.00
2022-12-31T00:53:02.366Z,0.00
2022-12-31T00:54:02.350Z,0.00
2022-12-31T00:55:02.352Z,0.00
2022-12-31T00:56:02.336Z,0.00
2022-12-31T00:57:02.320Z,0.00
2022-12-31T00:58:02.335Z,0.00
2022-12-31T00:59:02.325Z,0.00
2022-12-31T01:00:02.286Z,0.00
2022-12-31T01:01:02.404Z,0.00
2022-12-31T01:02:02.406Z,0.00
2022-12-31T01:03:02.354Z,0.00
2022-12-31T01:04:02.237Z,0.00
2022-12-31T01:05:02.242Z,0.00
2022-12-31T01:06:02.214Z,0.00
2022-12-31T01:07:02.203Z,0.00
2022-12-31T01:08:02.213Z,0.00
2022-12-31T01:09:02.238Z,0.00
2022-12-31T01:10:02.168Z,0.00
2022-12-31T01:11:02.162Z,0.00
2022-12-31T01:12:02.161Z,0.00
2022-12-31T01:13:02.169Z,0.00
2022-12-31T01:14:02.203Z,0.00
2022-12-31T01:15:02.136Z,0.00
2022-12-31T01:16:02.349Z,0.00
2022-12-31T01:17:02.089Z,0.00
2022-12-31T01:18:02.083Z,0.00
2022-12-31T01:19:02.067Z,0.00
2022-12-31T01:20:02.062Z,0.00
2022-12-31T01:21:02.047Z,0.00
2022-12-31T01:22:02.043Z,0.00
2022-12-31T01:23:02.021Z,0.00
2022-12-31T01:24:02.044Z,0.00
2022-12-31T01:25:02.003Z,0.00
2022-12-31T01:26:01.992Z,0.00
2022-12-31T01:27:01.979Z,0.00
2022-12-31T01:28:01.967Z,0.00
2022-12-31T01:29:01.968Z,0.00
2022-12-31T01:30:01.985Z,0.00
2022-12-31T01:31:01.966Z,0.00
2022-12-31T01:32:01.919Z,0.00
2022-12-31T01:33:01.906Z,0.00
2022-12-31T01:34:01.901Z,0.00
2022-12-31T01:35:01.893Z,0.00
2022-12-31T01:36:01.875Z,0.00
2022-12-31T01:37:01.864Z,0.00
2022-12-31T01:38:01.870Z,0.00
2022-12-31T01:39:01.849Z,0.00
2022-12-31T01:40:01.835Z,0.00
2022-12-31T01:41:01.840Z,0.00
2022-12-31T01:42:01.812Z,0.00
2022-12-31T01:43:01.802Z,0.00
2022-12-31T01:44:01.786Z,0.00
2022-12-31T01:45:01.779Z,0.00
2022-12-31T01:46:01.888Z,0.00
2022-12-31T01:47:01.769Z,0.00
2022-12-31T01:48:01.746Z,0.00
2022-12-31T01:49:01.744Z,0.00
2022-12-31T01:50:01.733Z,0.00
2022-12-31T01:51:01.720Z,0.00
2022-12-31T01:52:01.703Z,0.00
2022-12-31T01:53:01.698Z,0.00
2022-12-31T01:54:01.690Z,0.00
2022-12-31T01:55:01.667Z,0.00
2022-12-31T01:56:01.685Z,0.00
2022-12-31T01:57:01.654Z,0.00
2022-12-31T01:58:01.642Z,0.00
2022-12-31T01:59:01.626Z,0.00
2022-12-31T02:00:01.613Z,0.00
2022-12-31T02:01:01.660Z,0.00
2022-12-31T02:02:01.746Z,0.00
2022-12-31T02:03:01.621Z,0.00
2022-12-31T02:04:01.574Z,0.00
2022-12-31T02:05:01.559Z,0.00
2022-12-31T02:06:01.557Z,0.00
2022-12-31T02:07:01.542Z,0.00
2022-12-31T02:08:01.532Z,0.00
2022-12-31T02:09:01.517Z,0.00
2022-12-31T02:10:01.505Z,0.00
2022-12-31T02:11:01.500Z,0.00
2022-12-31T02:12:01.489Z,0.00
2022-12-31T02:13:01.474Z,0.00
2022-12-31T02:14:01.464Z,0.00
2022-12-31T02:15:01.454Z,0.00
2022-12-31T02:16:01.521Z,0.00
2022-12-31T02:17:01.439Z,0.00
2022-12-31T02:18:01.451Z,0.00
2022-12-31T02:19:01.408Z,0.00
2022-12-31T02:20:01.414Z,0.00
2022-12-31T02:21:01.393Z,0.00
2022-12-31T02:22:01.379Z,0.00
2022-12-31T02:23:01.365Z,0.00
2022-12-31T02:24:01.379Z,0.00
2022-12-31T02:25:01.344Z,0.00
2022-12-31T02:26:01.336Z,0.00
2022-12-31T02:27:01.318Z,0.00
2022-12-31T02:28:01.316Z,0.00
2022-12-31T02:29:01.300Z,0.00
2022-12-31T02:30:01.320Z,0.00
2022-12-31T02:31:01.325Z,0.00
2022-12-31T02:32:01.268Z,0.00
2022-12-31T02:33:02.741Z,0.00
2022-12-31T02:34:01.271Z,0.00
2022-12-31T02:35:01.237Z,0.00
2022-12-31T02:36:01.226Z,0.00
2022-12-31T02:37:01.231Z,0.00
2022-12-31T02:38:01.202Z,0.00
2022-12-31T02:39:01.191Z,0.00
2022-12-31T02:40:01.193Z,0.00
2022-12-31T02:41:01.172Z,0.00
2022-12-31T02:42:01.158Z,0.00
2022-12-31T02:43:01.151Z,0.00
2022-12-31T02:44:01.135Z,0.00
2022-12-31T02:45:01.125Z,0.00
2022-12-31T02:46:01.116Z,0.00
2022-12-31T02:47:01.122Z,0.00
2022-12-31T02:48:01.094Z,0.00
2022-12-31T02:49:01.083Z,0.00
2022-12-31T02:50:01.095Z,0.00
2022-12-31T02:51:01.080Z,0.00
2022-12-31T02:52:01.049Z,0.00
2022-12-31T02:53:01.040Z,0.00
2022-12-31T02:54:01.033Z,0.00
2022-12-31T02:55:01.018Z,0.00
2022-12-31T02:56:01.009Z,0.00
2022-12-31T02:57:01.026Z,0.00
2022-12-31T02:58:00.984Z,0.00
2022-12-31T02:59:00.979Z,0.00
2022-12-31T03:00:00.961Z,0.00
2022-12-31T03:01:01.087Z,0.00
2022-12-31T03:02:01.057Z,0.00
2022-12-31T03:03:00.930Z,0.00
2022-12-31T03:04:00.914Z,0.00
2022-12-31T03:05:00.910Z,0.00
2022-12-31T03:06:00.919Z,0.00
2022-12-31T03:07:00.892Z,0.00
2022-12-31T03:08:00.881Z,0.00
2022-12-31T03:09:00.864Z,0.00
2022-12-31T03:10:00.870Z,0.00
2022-12-31T03:11:00.846Z,0.00
2022-12-31T03:12:00.830Z,0.00
2022-12-31T03:13:00.820Z,0.00
2022-12-31T03:14:00.814Z,0.00
2022-12-31T03:15:00.799Z,0.00
2022-12-31T03:16:00.848Z,0.00
2022-12-31T03:17:00.777Z,0.00
2022-12-31T03:18:00.769Z,0.00
2022-12-31T03:19:00.755Z,0.00
2022-12-31T03:20:00.758Z,0.00
2022-12-31T03:21:00.738Z,0.00
2022-12-31T03:22:00.742Z,0.00
2022-12-31T03:23:00.722Z,0.00
2022-12-31T03:24:00.696Z,0.00
2022-12-31T03:25:00.693Z,0.00
2022-12-31T03:26:00.683Z,0.00
2022-12-31T03:27:00.679Z,0.00
2022-12-31T03:28:00.662Z,0.00
2022-12-31T03:29:00.650Z,0.00
2022-12-31T03:30:00.655Z,0.00
2022-12-31T03:31:00.744Z,0.00
2022-12-31T03:32:00.615Z,0.00
2022-12-31T03:33:00.610Z,0.00
2022-12-31T03:34:00.591Z,0.00
2022-12-31T03:35:00.584Z,0.00
2022-12-31T03:36:00.565Z,0.00
2022-12-31T03:37:00.561Z,0.00
2022-12-31T03:38:00.572Z,0.00
2022-12-31T03:39:00.533Z,0.00
2022-12-31T03:40:00.526Z,0.00
2022-12-31T03:41:00.514Z,0.00
2022-12-31T03:42:00.502Z,0.00
2022-12-31T03:43:00.499Z,0.00
2022-12-31T03:44:00.481Z,0.00
2022-12-31T03:45:00.476Z,0.00
2022-12-31T03:46:00.517Z,0.00
2022-12-31T03:47:00.452Z,0.00
2022-12-31T03:48:00.436Z,0.00
2022-12-31T03:49:00.428Z,0.00
2022-12-31T03:50:00.422Z,0.00
2022-12-31T03:51:00.411Z,0.00
2022-12-31T03:52:00.409Z,0.00
2022-12-31T03:53:00.388Z,0.00
2022-12-31T03:54:00.409Z,0.00
2022-12-31T03:55:00.361Z,0.00
2022-12-31T03:56:00.360Z,0.00
2022-12-31T03:57:00.594Z,0.00
2022-12-31T03:58:00.335Z,0.00
2022-12-31T03:59:00.333Z,0.00
2022-12-31T04:00:00.335Z,0.00
2022-12-31T04:01:00.462Z,0.00
2022-12-31T04:02:00.428Z,0.00
2022-12-31T04:03:00.299Z,0.00
2022-12-31T04:04:00.265Z,0.00
2022-12-31T04:05:00.252Z,0.00
2022-12-31T04:06:00.244Z,0.00
2022-12-31T04:07:00.231Z,0.00
2022-12-31T04:08:00.221Z,0.00
2022-12-31T04:09:00.207Z,0.00
2022-12-31T04:10:00.224Z,0.00
2022-12-31T04:11:00.192Z,0.00
2022-12-31T04:12:00.175Z,0.00
2022-12-31T04:13:00.170Z,0.00
2022-12-31T04:14:00.156Z,0.00
2022-12-31T04:15:00.158Z,0.00
2022-12-31T04:16:00.240Z,0.00
2022-12-31T04:17:00.123Z,0.00
2022-12-31T04:18:00.168Z,0.00
2022-12-31T04:19:00.103Z,0.00
2022-12-31T04:20:00.122Z,0.00
2022-12-31T04:21:00.124Z,0.00
2022-12-31T04:22:00.080Z,0.00
2022-12-31T04:23:00.064Z,0.00
2022-12-31T04:24:00.049Z,0.00
2022-12-31T04:25:00.049Z,0.00
2022-12-31T04:26:00.055Z,0.00
2022-12-31T04:27:07.103Z,0.00
2022-12-31T04:28:01.048Z,0.00
2022-12-31T04:28:59.992Z,0.00
2022-12-31T04:29:59.982Z,0.00
2022-12-31T04:30:59.974Z,0.00
2022-12-31T04:31:59.980Z,0.00
2022-12-31T04:32:59.948Z,0.00
2022-12-31T04:33:59.935Z,0.00
2022-12-31T04:34:59.929Z,0.00
2022-12-31T04:35:59.917Z,0.00
2022-12-31T04:36:59.903Z,0.00
2022-12-31T04:37:59.891Z,0.00
2022-12-31T04:38:59.882Z,0.00
2022-12-31T04:40:05.392Z,0.00
2022-12-31T04:40:59.858Z,0.00
2022-12-31T04:41:59.868Z,0.00
2022-12-31T04:42:59.839Z,0.00
2022-12-31T04:43:59.826Z,0.00
2022-12-31T04:44:59.814Z,0.00
2022-12-31T04:45:59.869Z,0.00
2022-12-31T04:46:59.795Z,0.00
2022-12-31T04:47:59.786Z,0.00
2022-12-31T04:48:59.794Z,0.00
2022-12-31T04:49:59.778Z,0.00
2022-12-31T04:50:59.767Z,0.00
2022-12-31T04:51:59.732Z,0.00
2022-12-31T04:52:59.728Z,0.00
2022-12-31T04:53:59.720Z,0.00
2022-12-31T04:54:59.706Z,0.00
2022-12-31T04:55:59.696Z,0.00
2022-12-31T04:56:59.682Z,0.00
2022-12-31T04:57:59.689Z,0.00
2022-12-31T04:58:59.666Z,0.00
2022-12-31T04:59:59.645Z,0.00
2022-12-31T05:00:59.691Z,0.00
2022-12-31T05:01:59.840Z,0.00
2022-12-31T05:02:59.662Z,0.00
2022-12-31T05:03:59.609Z,0.00
2022-12-31T05:04:59.591Z,0.00
2022-12-31T05:05:59.585Z,0.00
2022-12-31T05:06:59.568Z,0.00
2022-12-31T05:07:59.557Z,0.00
2022-12-31T05:08:59.548Z,0.00
2022-12-31T05:09:59.535Z,0.00
2022-12-31T05:10:59.526Z,0.00
2022-12-31T05:11:59.512Z,0.00
2022-12-31T05:12:59.502Z,0.00
2022-12-31T05:13:59.520Z,0.00
2022-12-31T05:14:59.485Z,0.00
2022-12-31T05:15:59.475Z,0.00
2022-12-31T05:16:59.583Z,0.00
2022-12-31T05:17:59.447Z,0.00
2022-12-31T05:18:59.442Z,0.00
2022-12-31T05:19:59.435Z,0.00
2022-12-31T05:20:59.421Z,0.00
2022-12-31T05:21:59.402Z,0.00
2022-12-31T05:22:59.394Z,0.00
2022-12-31T05:23:59.382Z,0.00
2022-12-31T05:24:59.397Z,0.00
2022-12-31T05:25:59.367Z,0.00
2022-12-31T05:26:59.345Z,0.00
2022-12-31T05:27:59.336Z,0.00
2022-12-31T05:28:59.329Z,0.00
2022-12-31T05:29:59.358Z,0.00
2022-12-31T05:30:59.312Z,0.00
2022-12-31T05:31:59.290Z,0.00
2022-12-31T05:32:59.290Z,0.00
2022-12-31T05:33:59.273Z,0.00
2022-12-31T05:34:59.261Z,0.00
2022-12-31T05:35:59.260Z,0.00
2022-12-31T05:36:59.240Z,0.00
2022-12-31T05:37:59.226Z,0.00
2022-12-31T05:38:59.214Z,0.00
2022-12-31T05:39:59.202Z,0.00
2022-12-31T05:40:59.197Z,0.00
2022-12-31T05:41:59.181Z,0.00
2022-12-31T05:42:59.167Z,0.00
2022-12-31T05:43:59.157Z,0.00
2022-12-31T05:44:59.150Z,0.00
2022-12-31T05:45:59.231Z,0.00
2022-12-31T05:46:59.126Z,0.00
2022-12-31T05:47:59.144Z,0.00
2022-12-31T05:48:59.103Z,0.00
2022-12-31T05:49:59.095Z,0.00
2022-12-31T05:50:59.079Z,0.00
2022-12-31T05:51:59.067Z,0.00
2022-12-31T05:52:59.056Z,0.00
2022-12-31T05:53:59.044Z,0.00
2022-12-31T05:54:59.046Z,0.00
2022-12-31T05:55:59.046Z,0.00
2022-12-31T05:56:59.014Z,0.00
2022-12-31T05:57:59.002Z,0.00
2022-12-31T05:58:58.991Z,0.00
2022-12-31T05:59:58.975Z,0.00
2022-12-31T06:00:59.062Z,0.00
2022-12-31T06:01:58.986Z,0.00
2022-12-31T06:02:59.033Z,0.00
2022-12-31T06:03:59.004Z,0.00
2022-12-31T06:04:58.920Z,0.00
2022-12-31T06:05:58.905Z,0.00
2022-12-31T06:06:58.906Z,0.00
2022-12-31T06:07:58.913Z,0.00
2022-12-31T06:08:58.888Z,0.00
2022-12-31T06:09:58.867Z,0.00
2022-12-31T06:10:58.856Z,0.00
2022-12-31T06:11:58.844Z,0.00
2022-12-31T06:12:58.838Z,0.00
2022-12-31T06:13:58.841Z,0.00
2022-12-31T06:14:58.815Z,0.00
2022-12-31T06:15:58.864Z,0.00
2022-12-31T06:16:58.790Z,0.00
2022-12-31T06:17:58.796Z,0.00
2022-12-31T06:18:58.768Z,0.00
2022-12-31T06:19:58.765Z,0.00
2022-12-31T06:20:58.744Z,0.00
2022-12-31T06:21:58.733Z,0.00
2022-12-31T06:22:58.742Z,0.00
2022-12-31T06:23:58.734Z,0.00
2022-12-31T06:24:58.703Z,0.00
2022-12-31T06:25:58.689Z,0.00
2022-12-31T06:26:58.675Z,0.00
2022-12-31T06:27:58.670Z,0.00
2022-12-31T06:28:58.805Z,0.00
2022-12-31T06:29:58.642Z,0.00
2022-12-31T06:30:58.731Z,0.00
2022-12-31T06:31:58.619Z,0.00
2022-12-31T06:32:58.616Z,0.00
2022-12-31T06:33:58.624Z,0.00
2022-12-31T06:34:58.592Z,0.00
2022-12-31T06:35:58.629Z,0.00
2022-12-31T06:36:58.563Z,0.00
2022-12-31T06:37:58.554Z,0.00
2022-12-31T06:38:58.549Z,0.00
2022-12-31T06:39:58.530Z,0.00
2022-12-31T06:40:58.531Z,0.00
2022-12-31T06:41:58.505Z,0.00
2022-12-31T06:43:00.448Z,0.00
2022-12-31T06:43:58.504Z,0.00
2022-12-31T06:44:58.482Z,0.00
2022-12-31T06:45:58.463Z,0.00
2022-12-31T06:46:58.470Z,0.00
2022-12-31T06:47:58.440Z,0.00
2022-12-31T06:48:58.427Z,0.00
2022-12-31T06:49:58.451Z,0.00
2022-12-31T06:50:58.405Z,0.00
2022-12-31T06:51:58.393Z,0.00
2022-12-31T06:52:58.382Z,0.00
2022-12-31T06:53:58.375Z,0.00
2022-12-31T06:54:58.359Z,0.00
2022-12-31T06:55:58.351Z,0.00
2022-12-31T06:56:58.341Z,0.00
2022-12-31T06:57:58.333Z,0.00
2022-12-31T06:58:58.319Z,0.00
2022-12-31T06:59:58.304Z,0.00
2022-12-31T07:00:58.328Z,0.00
2022-12-31T07:01:58.435Z,0.00
2022-12-31T07:02:58.328Z,0.00
2022-12-31T07:03:58.259Z,0.00
2022-12-31T07:04:58.248Z,0.00
2022-12-31T07:05:58.270Z,0.00
2022-12-31T07:06:58.232Z,0.00
2022-12-31T07:07:58.213Z,0.00
2022-12-31T07:08:58.200Z,0.00
2022-12-31T07:09:58.191Z,0.00
2022-12-31T07:10:58.177Z,0.00
2022-12-31T07:11:58.168Z,0.00
2022-12-31T07:12:58.154Z,0.00
2022-12-31T07:13:58.147Z,0.00
2022-12-31T07:14:58.149Z,0.00
2022-12-31T07:15:58.243Z,0.00
2022-12-31T07:16:58.132Z,0.00
2022-12-31T07:17:58.099Z,0.00
2022-12-31T07:18:58.087Z,0.00
2022-12-31T07:19:58.164Z,0.00
2022-12-31T07:20:58.067Z,0.00
2022-12-31T07:21:58.093Z,0.00
2022-12-31T07:22:58.043Z,0.00
2022-12-31T07:23:58.037Z,0.00
2022-12-31T07:24:58.026Z,0.00
2022-12-31T07:25:58.014Z,0.00
2022-12-31T07:26:58.011Z,0.00
2022-12-31T07:27:57.988Z,0.00
2022-12-31T07:28:57.976Z,0.00
2022-12-31T07:29:57.968Z,0.00
2022-12-31T07:30:58.035Z,0.00
2022-12-31T07:31:57.945Z,0.00
2022-12-31T07:32:57.934Z,0.00
2022-12-31T07:33:57.925Z,0.00
2022-12-31T07:34:57.913Z,0.00
2022-12-31T07:35:57.899Z,0.00
2022-12-31T07:36:57.892Z,0.00
2022-12-31T07:37:57.902Z,0.00
2022-12-31T07:38:57.863Z,0.00
2022-12-31T07:39:57.853Z,0.00
2022-12-31T07:40:58.648Z,0.00
2022-12-31T07:41:57.855Z,0.00
2022-12-31T07:42:57.820Z,0.00
2022-12-31T07:43:57.808Z,0.00
2022-12-31T07:44:57.809Z,0.00
2022-12-31T07:45:58.035Z,0.00
2022-12-31T07:46:58.162Z,0.00
2022-12-31T07:48:02.432Z,0.00
2022-12-31T07:48:57.752Z,0.00
2022-12-31T07:49:57.759Z,0.00
2022-12-31T07:50:58.132Z,0.00
2022-12-31T07:51:57.975Z,0.00
2022-12-31T07:52:57.708Z,0.00
2022-12-31T07:53:57.718Z,0.00
2022-12-31T07:54:57.697Z,0.00
2022-12-31T07:55:57.676Z,0.00
2022-12-31T07:56:57.662Z,0.00
2022-12-31T07:57:57.655Z,0.00
2022-12-31T07:58:57.639Z,5.62
2022-12-31T07:59:57.631Z,5.62
2022-12-31T08:00:57.718Z,5.62
2022-12-31T08:01:57.725Z,5.62
2022-12-31T08:02:57.599Z,5.62
2022-12-31T08:03:57.616Z,5.62
2022-12-31T08:04:57.573Z,5.62
2022-12-31T08:05:57.572Z,0.00
2022-12-31T08:06:57.594Z,5.62
2022-12-31T08:07:57.541Z,5.62
2022-12-31T08:08:57.532Z,5.62
2022-12-31T08:09:57.550Z,5.62
2022-12-31T08:10:57.507Z,5.62
2022-12-31T08:11:57.499Z,5.62
2022-12-31T08:12:57.484Z,0.00
2022-12-31T08:13:57.477Z,0.00
2022-12-31T08:14:57.472Z,5.62
2022-12-31T08:15:57.524Z,5.62
2022-12-31T08:16:57.445Z,5.62
2022-12-31T08:17:57.431Z,5.62
2022-12-31T08:18:57.422Z,11.25
2022-12-31T08:19:57.411Z,5.62
2022-12-31T08:20:57.397Z,5.62
2022-12-31T08:21:57.387Z,5.62
2022-12-31T08:22:57.379Z,11.25
2022-12-31T08:23:57.364Z,5.62
2022-12-31T08:24:57.351Z,5.62
2022-12-31T08:25:57.381Z,5.62
2022-12-31T08:26:57.342Z,5.62
2022-12-31T08:27:57.321Z,5.62
2022-12-31T08:28:57.309Z,11.25
2022-12-31T08:29:57.299Z,11.25
2022-12-31T08:30:57.295Z,11.25
2022-12-31T08:31:57.330Z,11.25
2022-12-31T08:32:57.266Z,16.88
2022-12-31T08:34:00.746Z,16.88
2022-12-31T08:34:58.270Z,11.25
2022-12-31T08:35:57.241Z,11.25
2022-12-31T08:36:57.219Z,11.25
2022-12-31T08:37:57.218Z,11.25
2022-12-31T08:38:57.200Z,11.25
2022-12-31T08:39:57.190Z,11.25
2022-12-31T08:40:57.173Z,11.25
2022-12-31T08:41:57.305Z,11.25
2022-12-31T08:42:57.152Z,16.88
2022-12-31T08:43:57.143Z,11.25
2022-12-31T08:44:57.137Z,16.88
2022-12-31T08:45:57.233Z,22.50
2022-12-31T08:46:57.107Z,22.50
2022-12-31T08:48:00.017Z,22.50
2022-12-31T08:48:57.083Z,16.88
2022-12-31T08:49:57.076Z,16.88
2022-12-31T08:50:57.061Z,16.88
2022-12-31T08:51:57.060Z,16.88
2022-12-31T08:52:57.040Z,16.88
2022-12-31T08:53:57.029Z,22.50
2022-12-31T08:54:57.034Z,22.50
2022-12-31T08:55:57.005Z,22.50
2022-12-31T08:56:56.998Z,28.12
2022-12-31T08:57:57.009Z,28.12
2022-12-31T08:58:56.970Z,28.12
2022-12-31T08:59:56.966Z,28.12
2022-12-31T09:00:57.069Z,22.50
2022-12-31T09:01:57.067Z,22.50
2022-12-31T09:02:56.925Z,22.50
2022-12-31T09:03:57.020Z,22.50
2022-12-31T09:04:56.907Z,16.88
2022-12-31T09:05:56.895Z,16.88
2022-12-31T09:06:56.897Z,16.88
2022-12-31T09:07:56.868Z,16.88
2022-12-31T09:08:56.858Z,11.25
2022-12-31T09:09:56.848Z,11.25
2022-12-31T09:10:56.834Z,11.25
2022-12-31T09:11:56.837Z,11.25
2022-12-31T09:12:56.827Z,11.25
2022-12-31T09:13:56.828Z,11.25
2022-12-31T09:14:56.790Z,11.25
2022-12-31T09:15:56.780Z,11.25
2022-12-31T09:16:56.817Z,11.25
2022-12-31T09:17:56.756Z,11.25
2022-12-31T09:18:56.745Z,11.25
2022-12-31T09:19:56.744Z,11.25
2022-12-31T09:20:56.725Z,11.25
2022-12-31T09:21:56.715Z,11.25
2022-12-31T09:22:56.706Z,11.25
2022-12-31T09:23:56.715Z,11.25
2022-12-31T09:24:56.726Z,11.25
2022-12-31T09:25:56.685Z,11.25
2022-12-31T09:26:56.661Z,11.25
2022-12-31T09:27:56.649Z,11.25
2022-12-31T09:28:56.679Z,11.25
2022-12-31T09:29:56.696Z,11.25
2022-12-31T09:30:56.689Z,11.25
2022-12-31T09:31:56.766Z,16.88
2022-12-31T09:33:00.854Z,16.88
2022-12-31T09:33:56.641Z,16.88
2022-12-31T09:34:56.579Z,16.88
2022-12-31T09:35:56.562Z,16.88
2022-12-31T09:36:56.550Z,16.88
2022-12-31T09:37:56.542Z,16.88
2022-12-31T09:38:56.525Z,16.88
2022-12-31T09:39:56.514Z,16.88
2022-12-31T09:40:56.502Z,16.88
2022-12-31T09:41:56.495Z,16.88
2022-12-31T09:42:56.481Z,16.88
2022-12-31T09:44:00.984Z,16.88
2022-12-31T09:44:56.462Z,16.88
2022-12-31T09:45:56.532Z,16.88
2022-12-31T09:46:56.438Z,16.88
2022-12-31T09:47:56.441Z,16.88
2022-12-31T09:48:56.416Z,22.50
2022-12-31T09:49:56.415Z,28.12
2022-12-31T09:50:56.403Z,28.12
2022-12-31T09:51:56.385Z,28.12
2022-12-31T09:52:56.371Z,28.12
2022-12-31T09:53:56.364Z,28.12
2022-12-31T09:54:56.346Z,28.12
2022-12-31T09:55:56.348Z,33.75
2022-12-31T09:56:59.208Z,33.75
2022-12-31T09:57:56.331Z,33.75
2022-12-31T09:58:56.303Z,39.38
2022-12-31T09:59:56.297Z,39.38
2022-12-31T10:00:56.492Z,39.38
2022-12-31T10:01:56.422Z,33.75
2022-12-31T10:02:56.322Z,28.12
2022-12-31T10:03:56.260Z,28.12
2022-12-31T10:04:56.253Z,28.12
2022-12-31T10:05:56.223Z,28.12
2022-12-31T10:06:56.208Z,22.50
2022-12-31T10:07:56.202Z,33.75
2022-12-31T10:08:56.185Z,33.75
2022-12-31T10:09:56.176Z,28.12
2022-12-31T10:10:56.163Z,22.50
2022-12-31T10:11:56.150Z,22.50
2022-12-31T10:12:56.139Z,16.88
2022-12-31T10:13:56.124Z,16.88
2022-12-31T10:14:56.111Z,22.50
2022-12-31T10:15:56.103Z,28.12
2022-12-31T10:16:56.150Z,22.50
2022-12-31T10:17:56.104Z,22.50
2022-12-31T10:18:56.067Z,28.12
2022-12-31T10:19:56.057Z,22.50
2022-12-31T10:20:56.043Z,33.75
2022-12-31T10:21:56.035Z,28.12
2022-12-31T10:22:56.022Z,33.75
2022-12-31T10:23:56.012Z,33.75
2022-12-31T10:24:56.012Z,39.38
2022-12-31T10:25:55.995Z,33.75
2022-12-31T10:26:55.978Z,39.38
2022-12-31T10:27:55.973Z,45.00
2022-12-31T10:28:55.956Z,33.75
2022-12-31T10:29:55.961Z,33.75
2022-12-31T10:30:55.938Z,28.12
2022-12-31T10:31:55.919Z,28.12
2022-12-31T10:32:55.907Z,22.50
2022-12-31T10:33:55.918Z,28.12
2022-12-31T10:34:55.900Z,33.75
2022-12-31T10:35:55.881Z,33.75
2022-12-31T10:36:55.860Z,33.75
2022-12-31T10:37:55.852Z,39.38
2022-12-31T10:38:55.839Z,39.38
2022-12-31T10:39:55.832Z,33.75
2022-12-31T10:40:55.816Z,33.75
2022-12-31T10:41:55.808Z,28.12
2022-12-31T10:42:55.794Z,28.12
2022-12-31T10:43:55.786Z,33.75
2022-12-31T10:44:55.771Z,33.75
2022-12-31T10:45:55.777Z,45.00
2022-12-31T10:46:55.756Z,45.00
2022-12-31T10:47:55.737Z,39.38
2022-12-31T10:48:55.745Z,45.00
2022-12-31T10:49:55.799Z,56.25
2022-12-31T10:50:55.705Z,56.25
2022-12-31T10:51:55.691Z,56.25
2022-12-31T10:52:55.683Z,61.88
2022-12-31T10:53:55.673Z,56.25
2022-12-31T10:54:55.663Z,56.25
2022-12-31T10:55:55.651Z,56.25
2022-12-31T10:56:55.637Z,61.88
2022-12-31T10:58:01.862Z,73.12
2022-12-31T10:58:56.637Z,78.75
2022-12-31T10:59:55.605Z,73.12
2022-12-31T11:00:55.605Z,73.12
2022-12-31T11:01:55.660Z,73.12
2022-12-31T11:02:55.648Z,78.75
2022-12-31T11:03:55.559Z,84.38
2022-12-31T11:04:55.547Z,90.00
2022-12-31T11:05:55.560Z,95.62
2022-12-31T11:06:55.530Z,90.00
2022-12-31T11:07:55.510Z,95.62
2022-12-31T11:08:55.502Z,84.38
2022-12-31T11:09:55.491Z,67.50
2022-12-31T11:10:55.483Z,67.50
2022-12-31T11:11:55.469Z,67.50
2022-12-31T11:12:55.461Z,67.50
2022-12-31T11:13:55.444Z,78.75
2022-12-31T11:14:55.439Z,101.25
2022-12-31T11:15:55.456Z,101.25
2022-12-31T11:16:55.416Z,90.00
2022-12-31T11:17:55.407Z,95.62
2022-12-31T11:18:55.391Z,84.38
2022-12-31T11:19:55.379Z,78.75
2022-12-31T11:20:55.369Z,84.38
2022-12-31T11:21:55.379Z,73.12
2022-12-31T11:22:55.353Z,73.12
2022-12-31T11:23:55.350Z,95.62
2022-12-31T11:24:55.342Z,112.50
2022-12-31T11:25:55.309Z,118.12
2022-12-31T11:26:55.302Z,157.50
2022-12-31T11:27:55.291Z,191.25
2022-12-31T11:28:55.280Z,174.38
2022-12-31T11:29:55.274Z,174.38
2022-12-31T11:30:55.302Z,185.62
2022-12-31T11:31:55.242Z,157.50
2022-12-31T11:32:55.240Z,146.25
2022-12-31T11:33:55.227Z,112.50
2022-12-31T11:34:55.209Z,95.62
2022-12-31T11:35:55.201Z,101.25
2022-12-31T11:36:55.197Z,95.62
2022-12-31T11:37:55.300Z,84.38
2022-12-31T11:38:55.164Z,78.75
2022-12-31T11:39:55.159Z,90.00
2022-12-31T11:40:55.146Z,61.88
2022-12-31T11:41:55.141Z,73.12
2022-12-31T11:42:55.121Z,95.62
2022-12-31T11:43:55.109Z,106.88
2022-12-31T11:44:55.110Z,90.00
2022-12-31T11:45:55.090Z,90.00
2022-12-31T11:46:55.084Z,95.62
2022-12-31T11:48:29.261Z,90.00
2022-12-31T11:48:56.081Z,84.38
2022-12-31T11:49:55.043Z,84.38
2022-12-31T11:50:55.035Z,73.12
2022-12-31T11:51:55.021Z,73.12
2022-12-31T11:52:55.017Z,78.75
2022-12-31T11:53:55.031Z,101.25
2022-12-31T11:54:54.991Z,106.88
2022-12-31T11:55:54.977Z,106.88
2022-12-31T11:56:54.968Z,95.62
2022-12-31T11:57:54.956Z,73.12
2022-12-31T11:58:54.968Z,78.75
2022-12-31T11:59:54.931Z,95.62
2022-12-31T12:00:54.934Z,106.88
2022-12-31T12:01:54.918Z,118.12
2022-12-31T12:02:54.946Z,123.75
2022-12-31T12:03:54.938Z,112.50
2022-12-31T12:04:54.887Z,84.38
2022-12-31T12:05:54.874Z,67.50
2022-12-31T12:06:54.872Z,61.88
2022-12-31T12:07:54.849Z,78.75
2022-12-31T12:08:54.834Z,78.75
2022-12-31T12:09:54.853Z,78.75
2022-12-31T12:10:54.818Z,84.38
2022-12-31T12:11:54.800Z,90.00
2022-12-31T12:12:54.793Z,73.12
2022-12-31T12:13:54.775Z,73.12
2022-12-31T12:14:54.795Z,67.50
2022-12-31T12:15:54.843Z,50.62
2022-12-31T12:16:59.062Z,39.38
2022-12-31T12:17:55.760Z,50.62
2022-12-31T12:18:54.727Z,45.00
2022-12-31T12:19:54.731Z,45.00
2022-12-31T12:20:54.703Z,67.50
2022-12-31T12:21:54.708Z,84.38
2022-12-31T12:22:54.679Z,101.25
2022-12-31T12:23:54.664Z,123.75
2022-12-31T12:24:54.658Z,101.25
2022-12-31T12:25:54.681Z,90.00
2022-12-31T12:26:54.634Z,73.12
2022-12-31T12:27:54.627Z,61.88
2022-12-31T12:28:54.617Z,61.88
2022-12-31T12:29:54.608Z,61.88
2022-12-31T12:30:54.690Z,50.62
2022-12-31T12:31:54.577Z,33.75
2022-12-31T12:32:54.569Z,22.50
2022-12-31T12:33:54.653Z,16.88
2022-12-31T12:34:54.577Z,22.50
2022-12-31T12:35:54.534Z,33.75
2022-12-31T12:36:54.534Z,39.38
2022-12-31T12:37:54.508Z,39.38
2022-12-31T12:38:54.546Z,45.00
2022-12-31T12:39:54.487Z,50.62
2022-12-31T12:40:54.476Z,45.00
2022-12-31T12:41:54.484Z,39.38
2022-12-31T12:42:54.462Z,33.75
2022-12-31T12:43:54.639Z,28.12
2022-12-31T12:44:54.430Z,33.75
2022-12-31T12:45:54.415Z,22.50
2022-12-31T12:46:54.464Z,22.50
2022-12-31T12:47:54.393Z,28.12
2022-12-31T12:48:54.393Z,28.12
2022-12-31T12:49:54.371Z,39.38
2022-12-31T12:50:54.362Z,33.75
2022-12-31T12:51:54.346Z,28.12
2022-12-31T12:52:59.214Z,22.50
2022-12-31T12:53:54.337Z,22.50
2022-12-31T12:54:54.424Z,22.50
2022-12-31T12:55:54.300Z,22.50
2022-12-31T12:56:54.292Z,16.88
2022-12-31T12:57:54.315Z,16.88
2022-12-31T12:58:54.271Z,22.50
2022-12-31T12:59:54.256Z,28.12
2022-12-31T13:00:54.338Z,50.62
2022-12-31T13:01:54.456Z,39.38
2022-12-31T13:02:54.271Z,39.38
2022-12-31T13:04:32.492Z,73.12
2022-12-31T13:04:55.225Z,101.25
2022-12-31T13:05:54.189Z,95.62
2022-12-31T13:06:54.180Z,90.00
2022-12-31T13:07:54.189Z,90.00
2022-12-31T13:08:54.157Z,84.38